sensor_id;sensor_type;location;lat;lon;timestamp;temperature;humidity
41720;DHT22;27405;53.316;-6.294;2023-11-19T00:01:41;11.70;99.90
41720;DHT22;27405;53.316;-6.294;2023-11-19T00:04:07;11.80;99.90
41720;DHT22;27405;53.316;-6.294;2023-11-19T00:06:33;11.70;99.90
41720;DHT22;27405;53.316;-6.294;2023-11-19T00:08:59;11.80;99.90
41720;DHT22;27405;53.316;-6.294;2023-11-19T00:11:25;11.80;99.90
41720;DHT22;27405;53.316;-6.294;2023-11-19T00:13:51;11.80;99.90
41720;DHT22;27405;53.316;-6.294;2023-11-19T00:16:17;11.70;99.90
41720;DHT22;27405;53.316;-6.294;2023-11-19T00:18:43;11.70;99.90
41720;DHT22;27405;53.316;-6.294;2023-11-19T00:21:09;11.60;99.90
41720;DHT22;27405;53.316;-6.294;2023-11-19T00:23:36;11.60;99.90
41720;DHT22;27405;53.316;-6.294;2023-11-19T00:26:02;11.60;99.90
41720;DHT22;27405;53.316;-6.294;2023-11-19T00:28:28;11.50;99.90
41720;DHT22;27405;53.316;-6.294;2023-11-19T00:30:54;11.60;99.90
41720;DHT22;27405;53.316;-6.294;2023-11-19T00:33:21;11.50;99.90
41720;DHT22;27405;53.316;-6.294;2023-11-19T00:35:46;11.50;99.90
41720;DHT22;27405;53.316;-6.294;2023-11-19T00:38:12;11.50;99.90
41720;DHT22;27405;53.316;-6.294;2023-11-19T00:40:38;11.40;99.90
41720;DHT22;27405;53.316;-6.294;2023-11-19T00:43:06;11.40;99.90
41720;DHT22;27405;53.316;-6.294;2023-11-19T00:48:54;11.40;99.90
41720;DHT22;27405;53.316;-6.294;2023-11-19T00:51:20;11.50;99.90
41720;DHT22;27405;53.316;-6.294;2023-11-19T00:53:46;11.50;99.90
41720;DHT22;27405;53.316;-6.294;2023-11-19T00:56:12;11.40;99.90
41720;DHT22;27405;53.316;-6.294;2023-11-19T00:58:38;11.40;99.90
41720;DHT22;27405;53.316;-6.294;2023-11-19T01:01:04;11.40;99.90
41720;DHT22;27405;53.316;-6.294;2023-11-19T01:03:30;11.40;99.90
41720;DHT22;27405;53.316;-6.294;2023-11-19T01:05:58;11.30;99.90
41720;DHT22;27405;53.316;-6.294;2023-11-19T01:08:26;11.40;99.90
41720;DHT22;27405;53.316;-6.294;2023-11-19T01:10:52;11.40;99.90
41720;DHT22;27405;53.316;-6.294;2023-11-19T01:13:18;11.40;99.90
41720;DHT22;27405;53.316;-6.294;2023-11-19T01:19:06;11.30;99.90
41720;DHT22;27405;53.316;-6.294;2023-11-19T01:21:33;11.30;99.90
41720;DHT22;27405;53.316;-6.294;2023-11-19T01:23:59;11.40;99.90
41720;DHT22;27405;53.316;-6.294;2023-11-19T01:26:25;11.40;99.90
41720;DHT22;27405;53.316;-6.294;2023-11-19T01:28:51;11.30;99.90
41720;DHT22;27405;53.316;-6.294;2023-11-19T01:31:18;11.40;99.90
41720;DHT22;27405;53.316;-6.294;2023-11-19T01:33:45;11.40;99.90
41720;DHT22;27405;53.316;-6.294;2023-11-19T01:36:15;11.40;99.90
41720;DHT22;27405;53.316;-6.294;2023-11-19T01:38:41;11.40;99.90
41720;DHT22;27405;53.316;-6.294;2023-11-19T01:41:07;11.30;99.90
41720;DHT22;27405;53.316;-6.294;2023-11-19T01:43:38;11.30;99.90
41720;DHT22;27405;53.316;-6.294;2023-11-19T01:46:07;11.40;99.90
41720;DHT22;27405;53.316;-6.294;2023-11-19T01:48:42;11.40;99.90
41720;DHT22;27405;53.316;-6.294;2023-11-19T01:51:09;11.40;99.90
41720;DHT22;27405;53.316;-6.294;2023-11-19T01:53:37;11.50;99.90
41720;DHT22;27405;53.316;-6.294;2023-11-19T01:56:04;11.40;99.90
41720;DHT22;27405;53.316;-6.294;2023-11-19T01:58:31;11.50;99.90
41720;DHT22;27405;53.316;-6.294;2023-11-19T02:00:58;11.40;99.90
41720;DHT22;27405;53.316;-6.294;2023-11-19T02:03:24;11.50;99.90
41720;DHT22;27405;53.316;-6.294;2023-11-19T02:05:52;11.50;99.90
41720;DHT22;27405;53.316;-6.294;2023-11-19T02:08:19;11.50;99.90
41720;DHT22;27405;53.316;-6.294;2023-11-19T02:10:45;11.50;99.90
41720;DHT22;27405;53.316;-6.294;2023-11-19T02:13:12;11.50;99.90
41720;DHT22;27405;53.316;-6.294;2023-11-19T02:15:40;11.50;99.90
41720;DHT22;27405;53.316;-6.294;2023-11-19T02:18:24;11.50;99.90
41720;DHT22;27405;53.316;-6.294;2023-11-19T02:20:54;11.50;99.90
41720;DHT22;27405;53.316;-6.294;2023-11-19T02:23:21;11.50;99.90
41720;DHT22;27405;53.316;-6.294;2023-11-19T02:26:15;11.50;99.90
41720;DHT22;27405;53.316;-6.294;2023-11-19T02:28:44;11.50;99.90
41720;DHT22;27405;53.316;-6.294;2023-11-19T02:31:10;11.60;99.90
41720;DHT22;27405;53.316;-6.294;2023-11-19T02:33:38;11.60;99.90
41720;DHT22;27405;53.316;-6.294;2023-11-19T02:36:05;11.60;99.90
41720;DHT22;27405;53.316;-6.294;2023-11-19T02:38:33;11.60;99.90
41720;DHT22;27405;53.316;-6.294;2023-11-19T02:40:59;11.60;99.90
41720;DHT22;27405;53.316;-6.294;2023-11-19T02:43:27;11.60;99.90
41720;DHT22;27405;53.316;-6.294;2023-11-19T02:45:53;11.70;99.90
41720;DHT22;27405;53.316;-6.294;2023-11-19T02:48:21;11.70;99.90
41720;DHT22;27405;53.316;-6.294;2023-11-19T02:50:47;11.60;99.90
41720;DHT22;27405;53.316;-6.294;2023-11-19T02:53:14;11.60;99.90
41720;DHT22;27405;53.316;-6.294;2023-11-19T02:59:01;11.60;99.90
41720;DHT22;27405;53.316;-6.294;2023-11-19T03:01:37;11.70;99.90
41720;DHT22;27405;53.316;-6.294;2023-11-19T03:04:09;11.70;99.90
41720;DHT22;27405;53.316;-6.294;2023-11-19T03:06:37;11.70;99.90
41720;DHT22;27405;53.316;-6.294;2023-11-19T03:09:03;11.60;99.90
41720;DHT22;27405;53.316;-6.294;2023-11-19T03:11:35;11.70;99.90
41720;DHT22;27405;53.316;-6.294;2023-11-19T03:14:01;11.70;99.90
41720;DHT22;27405;53.316;-6.294;2023-11-19T03:16:29;11.70;99.90
41720;DHT22;27405;53.316;-6.294;2023-11-19T03:18:55;11.80;99.90
41720;DHT22;27405;53.316;-6.294;2023-11-19T03:21:31;11.80;99.90
41720;DHT22;27405;53.316;-6.294;2023-11-19T03:23:59;11.80;99.90
41720;DHT22;27405;53.316;-6.294;2023-11-19T03:26:28;11.80;99.90
41720;DHT22;27405;53.316;-6.294;2023-11-19T03:28:54;11.80;99.90
41720;DHT22;27405;53.316;-6.294;2023-11-19T03:31:21;11.80;99.90
41720;DHT22;27405;53.316;-6.294;2023-11-19T03:33:47;11.80;99.90
41720;DHT22;27405;53.316;-6.294;2023-11-19T03:36:13;11.90;99.90
41720;DHT22;27405;53.316;-6.294;2023-11-19T03:38:39;11.90;99.90
41720;DHT22;27405;53.316;-6.294;2023-11-19T03:41:11;11.90;99.90
41720;DHT22;27405;53.316;-6.294;2023-11-19T03:43:37;11.90;99.90
41720;DHT22;27405;53.316;-6.294;2023-11-19T03:46:03;12.00;99.90
41720;DHT22;27405;53.316;-6.294;2023-11-19T03:48:31;11.90;99.90
41720;DHT22;27405;53.316;-6.294;2023-11-19T03:50:57;11.80;99.90
41720;DHT22;27405;53.316;-6.294;2023-11-19T03:53:23;11.80;99.90
41720;DHT22;27405;53.316;-6.294;2023-11-19T03:55:50;11.70;99.90
41720;DHT22;27405;53.316;-6.294;2023-11-19T03:58:16;11.70;99.90
41720;DHT22;27405;53.316;-6.294;2023-11-19T04:00:42;11.70;99.90
41720;DHT22;27405;53.316;-6.294;2023-11-19T04:03:08;11.70;99.90
41720;DHT22;27405;53.316;-6.294;2023-11-19T04:05:34;11.60;99.90
41720;DHT22;27405;53.316;-6.294;2023-11-19T04:08:01;11.60;99.90
41720;DHT22;27405;53.316;-6.294;2023-11-19T04:10:27;11.60;99.90
41720;DHT22;27405;53.316;-6.294;2023-11-19T04:12:53;11.60;99.90
41720;DHT22;27405;53.316;-6.294;2023-11-19T04:15:19;11.60;99.90
41720;DHT22;27405;53.316;-6.294;2023-11-19T04:17:45;11.60;99.90
41720;DHT22;27405;53.316;-6.294;2023-11-19T04:20:11;11.60;99.90
41720;DHT22;27405;53.316;-6.294;2023-11-19T04:22:39;11.60;99.90
41720;DHT22;27405;53.316;-6.294;2023-11-19T04:25:05;11.50;99.90
41720;DHT22;27405;53.316;-6.294;2023-11-19T04:27:31;11.50;99.90
41720;DHT22;27405;53.316;-6.294;2023-11-19T04:29:57;11.60;99.90
41720;DHT22;27405;53.316;-6.294;2023-11-19T04:32:23;11.60;99.90
41720;DHT22;27405;53.316;-6.294;2023-11-19T04:34:51;11.60;99.90
41720;DHT22;27405;53.316;-6.294;2023-11-19T04:37:17;11.60;99.90
41720;DHT22;27405;53.316;-6.294;2023-11-19T04:39:44;11.60;99.90
41720;DHT22;27405;53.316;-6.294;2023-11-19T04:42:11;11.60;99.90
41720;DHT22;27405;53.316;-6.294;2023-11-19T04:44:38;11.60;99.90
41720;DHT22;27405;53.316;-6.294;2023-11-19T04:47:04;11.60;99.90
41720;DHT22;27405;53.316;-6.294;2023-11-19T04:49:30;11.50;99.90
41720;DHT22;27405;53.316;-6.294;2023-11-19T04:51:56;11.50;99.90
41720;DHT22;27405;53.316;-6.294;2023-11-19T04:54:22;11.50;99.90
41720;DHT22;27405;53.316;-6.294;2023-11-19T04:56:48;11.50;99.90
41720;DHT22;27405;53.316;-6.294;2023-11-19T04:59:15;11.50;99.90
41720;DHT22;27405;53.316;-6.294;2023-11-19T05:01:41;11.50;99.90
41720;DHT22;27405;53.316;-6.294;2023-11-19T05:04:08;11.50;99.90
41720;DHT22;27405;53.316;-6.294;2023-11-19T05:06:34;11.50;99.90
41720;DHT22;27405;53.316;-6.294;2023-11-19T05:09:01;11.50;99.90
41720;DHT22;27405;53.316;-6.294;2023-11-19T05:11:29;11.50;99.90
41720;DHT22;27405;53.316;-6.294;2023-11-19T05:13:55;11.60;99.90
41720;DHT22;27405;53.316;-6.294;2023-11-19T05:16:20;11.60;99.90
41720;DHT22;27405;53.316;-6.294;2023-11-19T05:18:47;11.60;99.90
41720;DHT22;27405;53.316;-6.294;2023-11-19T05:21:13;11.60;99.90
41720;DHT22;27405;53.316;-6.294;2023-11-19T05:23:39;11.70;99.90
41720;DHT22;27405;53.316;-6.294;2023-11-19T05:26:06;11.70;99.90
41720;DHT22;27405;53.316;-6.294;2023-11-19T05:28:32;11.70;99.90
41720;DHT22;27405;53.316;-6.294;2023-11-19T05:30:58;11.70;99.90
41720;DHT22;27405;53.316;-6.294;2023-11-19T05:33:24;11.80;99.90
41720;DHT22;27405;53.316;-6.294;2023-11-19T05:39:12;11.70;99.90
41720;DHT22;27405;53.316;-6.294;2023-11-19T05:41:39;11.70;99.90
41720;DHT22;27405;53.316;-6.294;2023-11-19T05:44:05;11.70;99.90
41720;DHT22;27405;53.316;-6.294;2023-11-19T05:46:31;11.70;99.90
41720;DHT22;27405;53.316;-6.294;2023-11-19T05:48:57;11.70;99.90
41720;DHT22;27405;53.316;-6.294;2023-11-19T05:51:23;11.80;99.90
41720;DHT22;27405;53.316;-6.294;2023-11-19T05:53:52;11.70;99.90
41720;DHT22;27405;53.316;-6.294;2023-11-19T05:56:18;11.80;99.90
41720;DHT22;27405;53.316;-6.294;2023-11-19T05:58:47;11.80;99.90
41720;DHT22;27405;53.316;-6.294;2023-11-19T06:01:14;11.80;99.90
41720;DHT22;27405;53.316;-6.294;2023-11-19T06:03:41;11.80;99.90
41720;DHT22;27405;53.316;-6.294;2023-11-19T06:06:09;11.80;99.90
41720;DHT22;27405;53.316;-6.294;2023-11-19T06:08:35;11.80;99.90
41720;DHT22;27405;53.316;-6.294;2023-11-19T06:11:01;11.80;99.90
41720;DHT22;27405;53.316;-6.294;2023-11-19T06:13:27;11.80;99.90
41720;DHT22;27405;53.316;-6.294;2023-11-19T06:15:53;11.80;99.90
41720;DHT22;27405;53.316;-6.294;2023-11-19T06:18:19;11.80;99.90
41720;DHT22;27405;53.316;-6.294;2023-11-19T06:20:49;11.80;99.90
41720;DHT22;27405;53.316;-6.294;2023-11-19T06:23:15;11.80;99.90
41720;DHT22;27405;53.316;-6.294;2023-11-19T06:25:41;11.80;99.90
41720;DHT22;27405;53.316;-6.294;2023-11-19T06:28:07;11.80;99.90
41720;DHT22;27405;53.316;-6.294;2023-11-19T06:30:33;11.80;99.90
41720;DHT22;27405;53.316;-6.294;2023-11-19T06:32:59;11.80;99.90
41720;DHT22;27405;53.316;-6.294;2023-11-19T06:35:25;11.80;99.90
41720;DHT22;27405;53.316;-6.294;2023-11-19T06:37:52;11.80;99.90
41720;DHT22;27405;53.316;-6.294;2023-11-19T06:40:18;11.70;99.90
41720;DHT22;27405;53.316;-6.294;2023-11-19T06:42:44;11.70;99.90
41720;DHT22;27405;53.316;-6.294;2023-11-19T06:45:09;11.70;99.90
41720;DHT22;27405;53.316;-6.294;2023-11-19T06:47:35;11.60;99.90
41720;DHT22;27405;53.316;-6.294;2023-11-19T06:50:01;11.60;99.90
41720;DHT22;27405;53.316;-6.294;2023-11-19T06:52:31;11.60;99.90
41720;DHT22;27405;53.316;-6.294;2023-11-19T06:54:57;11.50;99.90
41720;DHT22;27405;53.316;-6.294;2023-11-19T06:57:23;11.60;99.90
41720;DHT22;27405;53.316;-6.294;2023-11-19T06:59:49;11.60;99.90
41720;DHT22;27405;53.316;-6.294;2023-11-19T07:02:15;11.60;99.90
41720;DHT22;27405;53.316;-6.294;2023-11-19T07:04:41;11.70;99.90
41720;DHT22;27405;53.316;-6.294;2023-11-19T07:07:07;11.70;99.90
41720;DHT22;27405;53.316;-6.294;2023-11-19T07:09:33;11.70;99.90
41720;DHT22;27405;53.316;-6.294;2023-11-19T07:11:59;11.70;99.90
41720;DHT22;27405;53.316;-6.294;2023-11-19T07:14:27;11.80;99.90
41720;DHT22;27405;53.316;-6.294;2023-11-19T07:16:54;11.80;99.90
41720;DHT22;27405;53.316;-6.294;2023-11-19T07:19:21;11.80;99.90
41720;DHT22;27405;53.316;-6.294;2023-11-19T07:21:47;11.80;99.90
41720;DHT22;27405;53.316;-6.294;2023-11-19T07:24:13;11.80;99.90
41720;DHT22;27405;53.316;-6.294;2023-11-19T07:26:43;11.80;99.90
41720;DHT22;27405;53.316;-6.294;2023-11-19T07:29:10;11.80;99.90
41720;DHT22;27405;53.316;-6.294;2023-11-19T07:31:36;11.90;99.90
41720;DHT22;27405;53.316;-6.294;2023-11-19T07:34:02;11.90;99.90
41720;DHT22;27405;53.316;-6.294;2023-11-19T07:36:29;11.90;99.90
41720;DHT22;27405;53.316;-6.294;2023-11-19T07:38:55;11.90;99.90
41720;DHT22;27405;53.316;-6.294;2023-11-19T07:41:23;11.90;99.90
41720;DHT22;27405;53.316;-6.294;2023-11-19T07:43:50;11.90;99.90
41720;DHT22;27405;53.316;-6.294;2023-11-19T07:46:17;11.90;99.90
41720;DHT22;27405;53.316;-6.294;2023-11-19T07:48:45;11.80;99.90
41720;DHT22;27405;53.316;-6.294;2023-11-19T07:51:13;11.80;99.90
41720;DHT22;27405;53.316;-6.294;2023-11-19T07:53:40;11.80;99.90
41720;DHT22;27405;53.316;-6.294;2023-11-19T07:56:07;11.80;99.90
41720;DHT22;27405;53.316;-6.294;2023-11-19T07:58:33;11.70;99.90
41720;DHT22;27405;53.316;-6.294;2023-11-19T08:00:59;11.70;99.90
41720;DHT22;27405;53.316;-6.294;2023-11-19T08:03:25;11.70;99.90
41720;DHT22;27405;53.316;-6.294;2023-11-19T08:05:51;11.70;99.90
41720;DHT22;27405;53.316;-6.294;2023-11-19T08:08:17;11.70;99.90
41720;DHT22;27405;53.316;-6.294;2023-11-19T08:10:43;11.80;99.90
41720;DHT22;27405;53.316;-6.294;2023-11-19T08:13:11;11.80;99.90
41720;DHT22;27405;53.316;-6.294;2023-11-19T08:15:37;11.80;99.90
41720;DHT22;27405;53.316;-6.294;2023-11-19T08:18:03;11.90;99.90
41720;DHT22;27405;53.316;-6.294;2023-11-19T08:20:29;11.90;99.90
41720;DHT22;27405;53.316;-6.294;2023-11-19T08:22:55;12.00;99.90
41720;DHT22;27405;53.316;-6.294;2023-11-19T08:25:21;12.00;99.90
41720;DHT22;27405;53.316;-6.294;2023-11-19T08:27:47;12.00;99.90
41720;DHT22;27405;53.316;-6.294;2023-11-19T08:30:13;12.10;99.90
41720;DHT22;27405;53.316;-6.294;2023-11-19T08:32:39;12.10;99.90
41720;DHT22;27405;53.316;-6.294;2023-11-19T08:35:05;12.20;99.90
41720;DHT22;27405;53.316;-6.294;2023-11-19T08:37:31;12.20;99.90
41720;DHT22;27405;53.316;-6.294;2023-11-19T08:39:57;12.20;99.90
41720;DHT22;27405;53.316;-6.294;2023-11-19T08:42:23;12.10;99.90
41720;DHT22;27405;53.316;-6.294;2023-11-19T08:44:50;12.10;99.90
41720;DHT22;27405;53.316;-6.294;2023-11-19T08:47:19;12.10;99.90
41720;DHT22;27405;53.316;-6.294;2023-11-19T08:49:45;12.00;99.90
41720;DHT22;27405;53.316;-6.294;2023-11-19T08:52:12;12.00;99.90
41720;DHT22;27405;53.316;-6.294;2023-11-19T08:54:38;12.10;99.90
41720;DHT22;27405;53.316;-6.294;2023-11-19T08:57:07;12.10;99.90
41720;DHT22;27405;53.316;-6.294;2023-11-19T08:59:34;12.10;99.90
41720;DHT22;27405;53.316;-6.294;2023-11-19T09:02:00;12.10;99.90
41720;DHT22;27405;53.316;-6.294;2023-11-19T09:04:27;12.10;99.90
41720;DHT22;27405;53.316;-6.294;2023-11-19T09:06:53;12.10;99.90
41720;DHT22;27405;53.316;-6.294;2023-11-19T09:09:22;12.10;99.90
41720;DHT22;27405;53.316;-6.294;2023-11-19T09:11:48;12.10;99.90
41720;DHT22;27405;53.316;-6.294;2023-11-19T09:14:14;12.10;99.90
41720;DHT22;27405;53.316;-6.294;2023-11-19T09:16:40;12.10;99.90
41720;DHT22;27405;53.316;-6.294;2023-11-19T09:19:06;12.10;99.90
41720;DHT22;27405;53.316;-6.294;2023-11-19T09:21:32;12.10;99.90
41720;DHT22;27405;53.316;-6.294;2023-11-19T09:24:00;12.20;99.90
41720;DHT22;27405;53.316;-6.294;2023-11-19T09:26:26;12.20;99.90
41720;DHT22;27405;53.316;-6.294;2023-11-19T09:28:52;12.30;99.90
41720;DHT22;27405;53.316;-6.294;2023-11-19T09:31:18;12.30;99.90
41720;DHT22;27405;53.316;-6.294;2023-11-19T09:33:44;12.40;99.90
41720;DHT22;27405;53.316;-6.294;2023-11-19T09:36:15;12.40;99.90
41720;DHT22;27405;53.316;-6.294;2023-11-19T09:38:45;12.50;99.90
41720;DHT22;27405;53.316;-6.294;2023-11-19T09:41:11;12.50;99.90
41720;DHT22;27405;53.316;-6.294;2023-11-19T09:43:42;12.60;99.90
41720;DHT22;27405;53.316;-6.294;2023-11-19T09:46:13;12.60;99.90
41720;DHT22;27405;53.316;-6.294;2023-11-19T09:48:41;12.60;99.90
41720;DHT22;27405;53.316;-6.294;2023-11-19T09:51:08;12.60;99.90
41720;DHT22;27405;53.316;-6.294;2023-11-19T09:53:36;12.60;99.90
41720;DHT22;27405;53.316;-6.294;2023-11-19T09:56:06;12.60;99.90
41720;DHT22;27405;53.316;-6.294;2023-11-19T09:58:33;12.70;99.90
41720;DHT22;27405;53.316;-6.294;2023-11-19T10:01:00;12.70;99.90
41720;DHT22;27405;53.316;-6.294;2023-11-19T10:03:33;12.70;99.90
41720;DHT22;27405;53.316;-6.294;2023-11-19T10:06:09;12.70;99.90
41720;DHT22;27405;53.316;-6.294;2023-11-19T10:08:40;12.80;99.90
41720;DHT22;27405;53.316;-6.294;2023-11-19T10:11:07;12.90;99.90
41720;DHT22;27405;53.316;-6.294;2023-11-19T10:13:37;12.90;99.90
41720;DHT22;27405;53.316;-6.294;2023-11-19T10:16:08;12.80;99.90
41720;DHT22;27405;53.316;-6.294;2023-11-19T10:18:34;12.80;99.90
41720;DHT22;27405;53.316;-6.294;2023-11-19T10:24:32;12.70;99.90
41720;DHT22;27405;53.316;-6.294;2023-11-19T10:27:00;12.80;99.90
41720;DHT22;27405;53.316;-6.294;2023-11-19T10:29:29;12.80;99.90
41720;DHT22;27405;53.316;-6.294;2023-11-19T10:31:56;12.80;99.90
41720;DHT22;27405;53.316;-6.294;2023-11-19T10:34:27;12.90;99.90
41720;DHT22;27405;53.316;-6.294;2023-11-19T10:36:53;12.90;99.90
41720;DHT22;27405;53.316;-6.294;2023-11-19T10:39:19;13.00;99.90
41720;DHT22;27405;53.316;-6.294;2023-11-19T10:41:46;13.00;99.90
41720;DHT22;27405;53.316;-6.294;2023-11-19T10:44:12;13.10;99.90
41720;DHT22;27405;53.316;-6.294;2023-11-19T10:46:56;13.10;99.90
41720;DHT22;27405;53.316;-6.294;2023-11-19T10:49:22;13.00;99.90
41720;DHT22;27405;53.316;-6.294;2023-11-19T10:51:49;13.10;99.90
41720;DHT22;27405;53.316;-6.294;2023-11-19T10:54:18;13.10;99.90
41720;DHT22;27405;53.316;-6.294;2023-11-19T10:56:45;13.10;99.90
41720;DHT22;27405;53.316;-6.294;2023-11-19T10:59:15;13.10;99.90
41720;DHT22;27405;53.316;-6.294;2023-11-19T11:01:46;13.10;99.90
41720;DHT22;27405;53.316;-6.294;2023-11-19T11:04:14;13.20;99.90
41720;DHT22;27405;53.316;-6.294;2023-11-19T11:06:43;13.20;99.90
41720;DHT22;27405;53.316;-6.294;2023-11-19T11:09:10;13.20;99.90
41720;DHT22;27405;53.316;-6.294;2023-11-19T11:11:40;13.20;99.90
41720;DHT22;27405;53.316;-6.294;2023-11-19T11:14:14;13.20;99.90
41720;DHT22;27405;53.316;-6.294;2023-11-19T11:16:46;13.20;99.90
41720;DHT22;27405;53.316;-6.294;2023-11-19T11:19:16;13.20;99.90
41720;DHT22;27405;53.316;-6.294;2023-11-19T11:21:47;13.20;99.90
41720;DHT22;27405;53.316;-6.294;2023-11-19T11:37:44;13.40;99.90
41720;DHT22;27405;53.316;-6.294;2023-11-19T11:40:17;13.50;99.90
41720;DHT22;27405;53.316;-6.294;2023-11-19T11:42:46;13.50;99.90
41720;DHT22;27405;53.316;-6.294;2023-11-19T11:45:13;13.50;99.90
41720;DHT22;27405;53.316;-6.294;2023-11-19T11:50:13;13.40;99.90
41720;DHT22;27405;53.316;-6.294;2023-11-19T11:55:28;13.40;99.90
41720;DHT22;27405;53.316;-6.294;2023-11-19T11:57:55;13.40;99.90
41720;DHT22;27405;53.316;-6.294;2023-11-19T12:03:00;13.30;99.90
41720;DHT22;27405;53.316;-6.294;2023-11-19T12:05:27;13.30;99.90
41720;DHT22;27405;53.316;-6.294;2023-11-19T12:08:00;13.30;99.90
41720;DHT22;27405;53.316;-6.294;2023-11-19T12:10:29;13.20;99.90
41720;DHT22;27405;53.316;-6.294;2023-11-19T12:12:59;13.20;99.90
41720;DHT22;27405;53.316;-6.294;2023-11-19T12:15:25;13.20;99.90
41720;DHT22;27405;53.316;-6.294;2023-11-19T12:17:54;13.10;99.90
41720;DHT22;27405;53.316;-6.294;2023-11-19T12:20:22;13.10;99.90
41720;DHT22;27405;53.316;-6.294;2023-11-19T12:22:49;13.10;99.90
41720;DHT22;27405;53.316;-6.294;2023-11-19T12:25:16;13.10;99.90
41720;DHT22;27405;53.316;-6.294;2023-11-19T12:27:44;13.10;99.90
41720;DHT22;27405;53.316;-6.294;2023-11-19T12:30:10;13.10;99.90
41720;DHT22;27405;53.316;-6.294;2023-11-19T12:32:44;13.10;99.90
41720;DHT22;27405;53.316;-6.294;2023-11-19T12:35:11;13.00;99.90
41720;DHT22;27405;53.316;-6.294;2023-11-19T12:37:44;13.00;99.90
41720;DHT22;27405;53.316;-6.294;2023-11-19T12:40:23;13.00;99.90
41720;DHT22;27405;53.316;-6.294;2023-11-19T12:42:50;13.00;99.90
41720;DHT22;27405;53.316;-6.294;2023-11-19T12:45:17;12.90;99.90
41720;DHT22;27405;53.316;-6.294;2023-11-19T12:47:44;12.90;99.90
41720;DHT22;27405;53.316;-6.294;2023-11-19T12:50:13;12.90;99.90
41720;DHT22;27405;53.316;-6.294;2023-11-19T12:52:40;12.80;99.90
41720;DHT22;27405;53.316;-6.294;2023-11-19T12:55:24;12.80;99.90
41720;DHT22;27405;53.316;-6.294;2023-11-19T12:57:51;12.80;99.90
41720;DHT22;27405;53.316;-6.294;2023-11-19T13:00:22;12.80;99.90
41720;DHT22;27405;53.316;-6.294;2023-11-19T13:02:52;12.70;99.90
41720;DHT22;27405;53.316;-6.294;2023-11-19T13:08:13;12.60;99.90
41720;DHT22;27405;53.316;-6.294;2023-11-19T13:13:14;12.50;99.90
41720;DHT22;27405;53.316;-6.294;2023-11-19T13:15:40;12.40;99.90
41720;DHT22;27405;53.316;-6.294;2023-11-19T13:18:06;12.30;99.90
41720;DHT22;27405;53.316;-6.294;2023-11-19T13:20:32;12.30;99.90
41720;DHT22;27405;53.316;-6.294;2023-11-19T13:23:03;12.30;99.90
41720;DHT22;27405;53.316;-6.294;2023-11-19T13:25:30;12.30;99.90
41720;DHT22;27405;53.316;-6.294;2023-11-19T13:27:57;12.40;99.90
41720;DHT22;27405;53.316;-6.294;2023-11-19T13:30:24;12.40;99.90
41720;DHT22;27405;53.316;-6.294;2023-11-19T13:32:51;12.40;99.90
41720;DHT22;27405;53.316;-6.294;2023-11-19T13:35:18;12.40;99.90
41720;DHT22;27405;53.316;-6.294;2023-11-19T13:37:44;12.50;99.90
41720;DHT22;27405;53.316;-6.294;2023-11-19T13:40:11;12.50;99.90
41720;DHT22;27405;53.316;-6.294;2023-11-19T13:42:40;12.50;99.90
41720;DHT22;27405;53.316;-6.294;2023-11-19T13:45:08;12.50;99.90
41720;DHT22;27405;53.316;-6.294;2023-11-19T13:47:43;12.50;99.90
41720;DHT22;27405;53.316;-6.294;2023-11-19T13:50:14;12.50;99.90
41720;DHT22;27405;53.316;-6.294;2023-11-19T13:52:43;12.50;99.90
41720;DHT22;27405;53.316;-6.294;2023-11-19T13:55:10;12.60;99.90
41720;DHT22;27405;53.316;-6.294;2023-11-19T13:57:38;12.60;99.90
41720;DHT22;27405;53.316;-6.294;2023-11-19T14:00:05;12.70;99.90
41720;DHT22;27405;53.316;-6.294;2023-11-19T14:02:41;12.70;99.90
41720;DHT22;27405;53.316;-6.294;2023-11-19T14:05:16;12.70;99.90
41720;DHT22;27405;53.316;-6.294;2023-11-19T14:07:43;12.70;99.90
41720;DHT22;27405;53.316;-6.294;2023-11-19T14:10:10;12.70;99.90
41720;DHT22;27405;53.316;-6.294;2023-11-19T14:12:38;12.70;99.90
41720;DHT22;27405;53.316;-6.294;2023-11-19T14:15:06;12.70;99.90
41720;DHT22;27405;53.316;-6.294;2023-11-19T14:17:33;12.80;99.90
41720;DHT22;27405;53.316;-6.294;2023-11-19T14:20:02;12.80;99.90
41720;DHT22;27405;53.316;-6.294;2023-11-19T14:22:41;12.80;99.90
41720;DHT22;27405;53.316;-6.294;2023-11-19T14:25:09;12.80;99.90
41720;DHT22;27405;53.316;-6.294;2023-11-19T14:27:40;12.80;99.90
41720;DHT22;27405;53.316;-6.294;2023-11-19T14:30:11;12.80;99.90
41720;DHT22;27405;53.316;-6.294;2023-11-19T14:32:40;12.80;99.90
41720;DHT22;27405;53.316;-6.294;2023-11-19T14:35:08;12.80;99.90
41720;DHT22;27405;53.316;-6.294;2023-11-19T14:37:34;12.90;99.90
41720;DHT22;27405;53.316;-6.294;2023-11-19T14:40:00;12.90;99.90
41720;DHT22;27405;53.316;-6.294;2023-11-19T14:42:30;12.90;99.90
41720;DHT22;27405;53.316;-6.294;2023-11-19T14:44:56;12.90;99.90
41720;DHT22;27405;53.316;-6.294;2023-11-19T14:47:22;12.90;99.90
41720;DHT22;27405;53.316;-6.294;2023-11-19T14:49:49;12.80;99.90
41720;DHT22;27405;53.316;-6.294;2023-11-19T14:52:15;12.80;99.90
41720;DHT22;27405;53.316;-6.294;2023-11-19T14:54:41;12.80;99.90
41720;DHT22;27405;53.316;-6.294;2023-11-19T14:57:08;12.80;99.90
41720;DHT22;27405;53.316;-6.294;2023-11-19T14:59:37;12.80;99.90
41720;DHT22;27405;53.316;-6.294;2023-11-19T15:02:04;12.80;99.90
41720;DHT22;27405;53.316;-6.294;2023-11-19T15:04:31;12.90;99.90
41720;DHT22;27405;53.316;-6.294;2023-11-19T15:06:58;12.90;99.90
41720;DHT22;27405;53.316;-6.294;2023-11-19T15:09:24;12.90;99.90
41720;DHT22;27405;53.316;-6.294;2023-11-19T15:11:53;12.90;99.90
41720;DHT22;27405;53.316;-6.294;2023-11-19T15:14:19;12.80;99.90
41720;DHT22;27405;53.316;-6.294;2023-11-19T15:16:46;12.80;99.90
41720;DHT22;27405;53.316;-6.294;2023-11-19T15:19:13;12.80;99.90
41720;DHT22;27405;53.316;-6.294;2023-11-19T15:21:40;12.70;99.90
41720;DHT22;27405;53.316;-6.294;2023-11-19T15:24:08;12.70;99.90
41720;DHT22;27405;53.316;-6.294;2023-11-19T15:26:34;12.60;99.90
41720;DHT22;27405;53.316;-6.294;2023-11-19T15:29:01;12.60;99.90
41720;DHT22;27405;53.316;-6.294;2023-11-19T15:31:28;12.50;99.90
41720;DHT22;27405;53.316;-6.294;2023-11-19T15:33:55;12.50;99.90
41720;DHT22;27405;53.316;-6.294;2023-11-19T15:36:21;12.50;99.90
41720;DHT22;27405;53.316;-6.294;2023-11-19T15:38:47;12.40;99.90
41720;DHT22;27405;53.316;-6.294;2023-11-19T15:41:13;12.40;99.90
41720;DHT22;27405;53.316;-6.294;2023-11-19T15:43:39;12.40;99.90
41720;DHT22;27405;53.316;-6.294;2023-11-19T15:46:07;12.40;99.90
41720;DHT22;27405;53.316;-6.294;2023-11-19T15:48:33;12.30;99.90
41720;DHT22;27405;53.316;-6.294;2023-11-19T15:50:59;12.20;99.90
41720;DHT22;27405;53.316;-6.294;2023-11-19T15:53:25;12.20;99.90
41720;DHT22;27405;53.316;-6.294;2023-11-19T15:55:51;12.10;99.90
41720;DHT22;27405;53.316;-6.294;2023-11-19T15:58:20;12.10;99.90
41720;DHT22;27405;53.316;-6.294;2023-11-19T16:00:48;12.10;99.90